Time;durP1;ratioP1;P1;durP2;ratioP2;P2;SDS_P1;SDS_P2;PMS_P1;PMS_P2;Temp;Humidity;BMP_temperature;BMP_pressure;BME280_temperature;BME280_humidity;BME280_pressure;Samples;Min_cycle;Max_cycle;Signal;HPM_P1;HPM_P2
2020/12/24 00:01:48;;;;;;;3.77;3.03;;;12.70;96.10;;;;;;5011277;28;20185;-75
2020/12/24 00:04:14;;;;;;;4.03;3.07;;;12.70;95.90;;;;;;5011157;28;20178;-75
2020/12/24 00:06:40;;;;;;;3.03;2.83;;;12.60;95.70;;;;;;5010753;28;20420;-75
2020/12/24 00:09:06;;;;;;;5.90;2.90;;;12.60;95.70;;;;;;5012411;28;20215;-75
2020/12/24 00:11:31;;;;;;;3.90;3.03;;;12.50;95.60;;;;;;5011652;28;20254;-75
2020/12/24 00:13:57;;;;;;;3.70;3.13;;;12.50;95.70;;;;;;5010730;28;20183;-75
2020/12/24 00:16:23;;;;;;;4.00;3.07;;;12.50;95.40;;;;;;5010297;28;20309;-75
2020/12/24 00:18:49;;;;;;;3.20;2.90;;;12.60;95.60;;;;;;5009738;28;20297;-74
2020/12/24 00:21:15;;;;;;;3.20;2.90;;;12.60;95.30;;;;;;5008471;28;20541;-75
2020/12/24 00:23:40;;;;;;;6.40;2.90;;;12.60;95.20;;;;;;4992052;28;20425;-75
2020/12/24 00:26:06;;;;;;;3.63;3.33;;;12.60;95.10;;;;;;5001030;28;20179;-75
2020/12/24 00:28:32;;;;;;;3.53;3.23;;;12.60;95.40;;;;;;5009264;28;20621;-75
2020/12/24 00:30:59;;;;;;;4.30;3.23;;;12.50;95.20;;;;;;5011067;28;20190;-75
2020/12/24 00:33:25;;;;;;;3.63;3.43;;;12.50;95.30;;;;;;5011770;28;20464;-78
2020/12/24 00:35:51;;;;;;;5.43;3.67;;;12.50;95.30;;;;;;5011415;28;20504;-75
2020/12/24 00:38:17;;;;;;;3.93;3.57;;;12.40;95.10;;;;;;5011859;28;20460;-74
2020/12/24 00:40:43;;;;;;;3.93;3.47;;;12.40;95.10;;;;;;4993574;28;20202;-74
2020/12/24 00:43:09;;;;;;;3.90;3.57;;;12.40;95.90;;;;;;5011514;28;20980;-74
2020/12/24 00:45:35;;;;;;;3.43;3.23;;;12.30;95.20;;;;;;5011116;28;20205;-75
2020/12/24 00:48:00;;;;;;;3.63;3.10;;;12.30;95.70;;;;;;5011668;28;20256;-74
2020/12/24 00:50:26;;;;;;;6.37;4.10;;;12.30;95.60;;;;;;5011031;28;20190;-74
2020/12/24 00:52:52;;;;;;;5.00;3.90;;;12.30;95.30;;;;;;5009854;28;20209;-74
2020/12/24 00:55:17;;;;;;;4.00;3.57;;;12.30;95.40;;;;;;5011966;28;20715;-75
2020/12/24 00:57:43;;;;;;;5.90;3.40;;;12.30;95.60;;;;;;5009816;28;20189;-75
2020/12/24 01:00:09;;;;;;;6.27;3.47;;;12.30;95.60;;;;;;5009891;28;20241;-75
2020/12/24 01:02:35;;;;;;;3.60;3.30;;;12.20;95.90;;;;;;5010986;28;20540;-75
2020/12/24 01:05:03;;;;;;;4.70;3.10;;;12.20;95.90;;;;;;5010210;28;20429;-75
2020/12/24 01:07:30;;;;;;;5.77;3.20;;;12.10;95.90;;;;;;5013431;28;20483;-76
2020/12/24 01:09:55;;;;;;;6.00;3.20;;;12.10;96.00;;;;;;5015437;28;20440;-75
2020/12/24 01:12:21;;;;;;;4.07;3.10;;;12.10;95.90;;;;;;5015317;28;20511;-75
2020/12/24 01:14:47;;;;;;;4.23;3.53;;;12.10;96.10;;;;;;5013038;28;20205;-76
2020/12/24 01:17:13;;;;;;;3.77;3.00;;;12.20;96.20;;;;;;5014594;28;20507;-75
2020/12/24 01:19:39;;;;;;;6.43;3.60;;;12.20;95.90;;;;;;5014329;28;20182;-75
2020/12/24 01:22:04;;;;;;;3.20;2.90;;;12.20;96.00;;;;;;5015295;28;20178;-75
2020/12/24 01:24:30;;;;;;;6.77;3.43;;;12.20;95.50;;;;;;5013073;28;20236;-76
2020/12/24 01:26:56;;;;;;;4.00;2.80;;;12.20;95.50;;;;;;5014651;28;20269;-76
2020/12/24 01:29:21;;;;;;;5.67;3.43;;;12.20;95.70;;;;;;5013766;28;20210;-76
2020/12/24 01:31:48;;;;;;;4.60;2.87;;;12.20;95.50;;;;;;5014759;28;20188;-75
2020/12/24 01:34:15;;;;;;;4.47;3.17;;;12.20;95.40;;;;;;5016170;28;20179;-75
2020/12/24 01:36:41;;;;;;;4.03;2.60;;;12.20;95.60;;;;;;5014646;28;20929;-76
2020/12/24 01:39:08;;;;;;;3.60;2.57;;;12.30;95.40;;;;;;5013933;28;20479;-75
2020/12/24 01:41:34;;;;;;;5.93;3.07;;;12.20;95.20;;;;;;5010744;28;20424;-75
2020/12/24 01:44:00;;;;;;;5.83;3.60;;;12.10;95.30;;;;;;5000361;28;20522;-75
2020/12/24 01:46:26;;;;;;;5.00;3.00;;;12.10;95.50;;;;;;5014894;28;20909;-75
2020/12/24 01:48:53;;;;;;;5.10;3.40;;;12.10;95.30;;;;;;5014412;28;20915;-75
2020/12/24 01:51:28;;;;;;;5.00;2.73;;;12.10;95.20;;;;;;5014280;28;20508;-74
2020/12/24 01:53:56;;;;;;;3.23;2.93;;;12.10;95.30;;;;;;5013904;28;21034;-74
2020/12/24 01:56:22;;;;;;;4.17;3.00;;;12.10;95.00;;;;;;5013144;28;20582;-76
2020/12/24 01:58:50;;;;;;;3.90;2.50;;;12.10;95.00;;;;;;5012545;28;20519;-76
2020/12/24 02:01:16;;;;;;;5.20;3.03;;;12.00;94.90;;;;;;5032322;28;20471;-76
2020/12/24 02:03:42;;;;;;;5.10;3.17;;;12.00;94.70;;;;;;5029212;28;20444;-76
2020/12/24 02:06:10;;;;;;;7.57;3.50;;;11.90;94.80;;;;;;5014934;28;20978;-75
2020/12/24 02:08:36;;;;;;;3.43;3.13;;;11.90;94.80;;;;;;5026039;28;20240;-76
2020/12/24 02:11:02;;;;;;;3.27;2.97;;;11.90;94.80;;;;;;5016183;28;20418;-75
2020/12/24 02:13:28;;;;;;;7.97;2.97;;;11.90;95.00;;;;;;5013030;28;20510;-75
2020/12/24 02:15:54;;;;;;;8.30;2.87;;;11.80;94.90;;;;;;5013427;28;20453;-75
2020/12/24 02:18:20;;;;;;;4.10;3.30;;;11.80;94.80;;;;;;5012311;28;20214;-76
2020/12/24 02:20:46;;;;;;;5.53;2.77;;;11.80;94.90;;;;;;5014019;28;20413;-75
2020/12/24 02:23:12;;;;;;;4.43;3.60;;;11.80;95.00;;;;;;5014368;28;20906;-75
2020/12/24 02:25:41;;;;;;;4.90;3.57;;;11.80;94.90;;;;;;4979158;28;20430;-75
2020/12/24 02:28:09;;;;;;;4.47;2.90;;;11.70;94.60;;;;;;5013135;28;20195;-75
2020/12/24 02:30:35;;;;;;;6.57;2.93;;;11.70;94.80;;;;;;5003009;28;20429;-75
2020/12/24 02:33:01;;;;;;;5.23;2.80;;;11.70;94.80;;;;;;5013578;28;20414;-75
2020/12/24 02:35:26;;;;;;;5.07;2.87;;;11.60;94.80;;;;;;5013785;28;20460;-74
2020/12/24 02:37:52;;;;;;;5.33;3.50;;;11.60;94.90;;;;;;5012864;28;20223;-74
2020/12/24 02:40:18;;;;;;;4.00;2.70;;;11.70;94.70;;;;;;5013671;28;20432;-75
2020/12/24 02:42:44;;;;;;;3.83;3.50;;;11.80;94.70;;;;;;5012809;28;20181;-75
2020/12/24 02:45:10;;;;;;;3.63;2.90;;;11.70;94.50;;;;;;5013515;28;20456;-74
2020/12/24 02:47:36;;;;;;;3.43;3.00;;;11.80;94.30;;;;;;5013218;28;20188;-76
2020/12/24 02:50:05;;;;;;;7.40;3.27;;;11.80;94.20;;;;;;5013259;28;20231;-74
2020/12/24 02:52:31;;;;;;;4.90;2.87;;;11.90;94.20;;;;;;5013190;28;20511;-76
2020/12/24 02:54:57;;;;;;;7.90;3.23;;;11.90;93.90;;;;;;5012535;28;20548;-75
2020/12/24 02:57:22;;;;;;;4.10;3.20;;;12.00;93.90;;;;;;4996086;28;20188;-74
2020/12/24 02:59:48;;;;;;;5.20;2.93;;;11.90;93.50;;;;;;5012772;28;20193;-73
2020/12/24 03:02:14;;;;;;;6.97;3.10;;;11.90;93.60;;;;;;5013284;28;20202;-73
2020/12/24 03:04:39;;;;;;;4.27;2.87;;;11.80;93.50;;;;;;5012280;28;20227;-74
2020/12/24 03:07:05;;;;;;;4.23;3.20;;;11.80;93.80;;;;;;5013523;28;20211;-74
2020/12/24 03:09:31;;;;;;;4.03;3.50;;;11.90;93.90;;;;;;5013064;28;20184;-74
2020/12/24 03:11:57;;;;;;;9.97;3.67;;;11.80;93.40;;;;;;5012570;28;20191;-74
2020/12/24 03:14:22;;;;;;;8.83;3.63;;;11.80;93.80;;;;;;5012848;28;20188;-74
2020/12/24 03:16:49;;;;;;;11.47;3.93;;;11.80;94.00;;;;;;5012337;28;20184;-74
2020/12/24 03:19:15;;;;;;;5.20;3.10;;;11.80;94.30;;;;;;5013497;28;20576;-74
2020/12/24 03:21:40;;;;;;;5.57;3.10;;;11.80;94.50;;;;;;5011919;28;20475;-74
2020/12/24 03:24:06;;;;;;;7.57;3.40;;;11.80;94.20;;;;;;5005865;28;20181;-74
2020/12/24 03:26:33;;;;;;;3.23;2.93;;;11.80;94.10;;;;;;4998055;28;20556;-74
2020/12/24 03:28:58;;;;;;;4.10;3.67;;;11.80;94.30;;;;;;5006562;28;20914;-74
2020/12/24 03:31:25;;;;;;;4.80;3.00;;;11.80;94.20;;;;;;5009396;28;20460;-74
2020/12/24 03:33:53;;;;;;;8.17;3.50;;;11.70;94.20;;;;;;4992130;28;20506;-74
2020/12/24 03:36:19;;;;;;;4.63;2.97;;;11.80;94.40;;;;;;5007071;28;20866;-74
2020/12/24 03:38:45;;;;;;;5.00;3.17;;;11.80;94.20;;;;;;5011969;28;20500;-74
2020/12/24 03:41:11;;;;;;;5.87;3.20;;;11.80;93.80;;;;;;5011801;28;20643;-73
2020/12/24 03:43:36;;;;;;;4.30;3.40;;;11.80;93.80;;;;;;5006275;28;20421;-75
2020/12/24 03:46:02;;;;;;;6.60;3.30;;;11.80;94.20;;;;;;5004011;28;20454;-74
2020/12/24 03:48:28;;;;;;;9.33;3.47;;;11.90;94.30;;;;;;5008014;28;20186;-73
2020/12/24 03:50:54;;;;;;;5.03;2.93;;;11.90;94.20;;;;;;5012318;28;20551;-74
2020/12/24 03:53:20;;;;;;;3.37;3.03;;;12.00;94.10;;;;;;5007903;28;20425;-74
2020/12/24 03:55:46;;;;;;;4.20;3.10;;;11.90;94.10;;;;;;5011183;28;20675;-74
2020/12/24 03:58:12;;;;;;;7.60;3.23;;;11.90;94.30;;;;;;5012845;28;20404;-73
2020/12/24 04:00:39;;;;;;;5.07;3.00;;;11.90;94.60;;;;;;5011016;28;20276;-75
2020/12/24 04:03:05;;;;;;;5.93;3.50;;;12.00;95.40;;;;;;4993210;28;20175;-73
2020/12/24 04:05:31;;;;;;;5.10;3.70;;;11.90;95.20;;;;;;5006421;28;20421;-73
2020/12/24 04:07:57;;;;;;;3.47;2.90;;;11.80;95.40;;;;;;5011980;28;20476;-73
2020/12/24 04:10:23;;;;;;;4.60;3.20;;;11.80;95.50;;;;;;5010468;28;20251;-73
2020/12/24 04:12:49;;;;;;;5.00;3.47;;;11.80;95.70;;;;;;5005553;28;20505;-73
2020/12/24 04:15:14;;;;;;;3.10;2.70;;;11.80;95.70;;;;;;5011176;28;20212;-73
2020/12/24 04:17:40;;;;;;;4.43;3.10;;;11.70;95.60;;;;;;5006360;28;20172;-74
2020/12/24 04:20:06;;;;;;;6.90;3.13;;;11.70;95.70;;;;;;5012667;28;20200;-73
2020/12/24 04:22:32;;;;;;;5.13;3.23;;;11.60;95.80;;;;;;5002588;28;20227;-73
2020/12/24 04:24:59;;;;;;;6.27;3.17;;;11.50;95.80;;;;;;5007808;28;20485;-73
2020/12/24 04:27:24;;;;;;;5.30;2.67;;;11.60;95.90;;;;;;5012348;28;20228;-73
2020/12/24 04:29:50;;;;;;;5.57;3.10;;;11.70;95.80;;;;;;5011249;28;20417;-73
2020/12/24 04:32:16;;;;;;;5.30;3.30;;;11.70;95.80;;;;;;5002225;28;20267;-73
2020/12/24 04:34:42;;;;;;;3.87;3.30;;;11.70;95.70;;;;;;5010909;28;20473;-73
2020/12/24 04:37:07;;;;;;;6.63;3.20;;;11.60;95.50;;;;;;5004405;28;20184;-73
2020/12/24 04:39:34;;;;;;;3.90;3.30;;;11.60;95.70;;;;;;4995560;28;20217;-73
2020/12/24 04:42:00;;;;;;;3.77;2.97;;;11.60;95.80;;;;;;5023026;28;20444;-73
2020/12/24 04:44:30;;;;;;;3.07;2.80;;;11.60;96.20;;;;;;5003728;28;20586;-73
2020/12/24 04:46:56;;;;;;;6.43;3.00;;;11.60;96.10;;;;;;4999501;28;20458;-75
2020/12/24 04:49:25;;;;;;;3.23;2.80;;;11.60;96.60;;;;;;5016379;28;20443;-75
2020/12/24 04:51:51;;;;;;;2.80;2.60;;;11.60;96.00;;;;;;5013153;28;20487;-75
2020/12/24 04:54:17;;;;;;;5.13;2.80;;;11.60;95.90;;;;;;5015826;28;20425;-73
2020/12/24 04:56:44;;;;;;;3.40;2.60;;;11.60;95.90;;;;;;5015472;28;20189;-76
2020/12/24 04:59:10;;;;;;;4.80;2.90;;;11.60;95.80;;;;;;5009699;28;20413;-75
2020/12/24 05:01:35;;;;;;;6.90;3.23;;;11.60;95.90;;;;;;5013914;28;20432;-74
2020/12/24 05:04:03;;;;;;;2.80;2.50;;;11.60;95.90;;;;;;5014975;28;20406;-75
2020/12/24 05:06:29;;;;;;;5.70;2.73;;;11.60;96.00;;;;;;5002949;28;20553;-74
2020/12/24 05:08:59;;;;;;;3.60;2.87;;;11.60;95.60;;;;;;5002825;28;20424;-74
2020/12/24 05:11:29;;;;;;;3.70;3.27;;;11.60;95.70;;;;;;5012006;28;20927;-74
2020/12/24 05:13:56;;;;;;;4.57;3.63;;;11.60;95.90;;;;;;5014470;28;20520;-75
2020/12/24 05:16:22;;;;;;;5.47;2.93;;;11.60;95.80;;;;;;5006057;28;20881;-75
2020/12/24 05:18:48;;;;;;;4.97;2.80;;;11.60;95.90;;;;;;5014995;28;20449;-75
2020/12/24 05:21:31;;;;;;;2.70;2.60;;;11.50;95.70;;;;;;5015710;28;20178;-74
2020/12/24 05:23:57;;;;;;;5.40;3.30;;;11.50;96.10;;;;;;5010830;28;20496;-75
2020/12/24 05:26:23;;;;;;;4.03;2.80;;;11.50;96.10;;;;;;4996037;28;20422;-74
2020/12/24 05:28:48;;;;;;;3.83;2.80;;;11.60;96.00;;;;;;4996252;28;20510;-75
2020/12/24 05:31:40;;;;;;;3.37;3.07;;;11.50;96.00;;;;;;5000318;28;20203;-74
2020/12/24 05:34:06;;;;;;;8.30;3.87;;;11.50;96.20;;;;;;4992298;28;20502;-74
2020/12/24 05:36:32;;;;;;;3.60;2.80;;;11.50;96.30;;;;;;5003278;28;20469;-74
2020/12/24 05:38:57;;;;;;;3.60;3.23;;;11.50;96.50;;;;;;5012888;28;20252;-74
2020/12/24 05:41:27;;;;;;;5.80;3.80;;;11.50;96.70;;;;;;5003836;28;20212;-74
2020/12/24 05:44:05;;;;;;;2.80;2.60;;;11.50;96.60;;;;;;5009102;28;20208;-74
2020/12/24 05:46:41;;;;;;;4.30;3.43;;;11.50;96.50;;;;;;5015476;28;20437;-74
2020/12/24 05:49:19;;;;;;;4.47;3.33;;;11.50;96.70;;;;;;5010244;28;20545;-74
2020/12/24 05:51:59;;;;;;;3.50;2.97;;;11.50;96.90;;;;;;5008990;28;20431;-75
2020/12/24 05:54:28;;;;;;;6.83;4.20;;;11.40;96.70;;;;;;5012092;28;20896;-74
2020/12/24 05:56:55;;;;;;;5.90;3.23;;;11.40;97.00;;;;;;5003193;28;20414;-74
2020/12/24 05:59:24;;;;;;;3.93;3.57;;;11.40;97.20;;;;;;5005607;28;20774;-74
2020/12/24 06:01:59;;;;;;;3.70;3.40;;;11.40;97.20;;;;;;5009122;28;20939;-74
2020/12/24 06:04:43;;;;;;;5.43;3.10;;;11.40;97.40;;;;;;4999999;28;20433;-74
2020/12/24 06:07:09;;;;;;;4.80;3.73;;;11.30;97.40;;;;;;5002718;28;20931;-74
2020/12/24 06:09:37;;;;;;;7.97;4.03;;;11.40;97.60;;;;;;4995789;28;20430;-75
2020/12/24 06:12:21;;;;;;;4.50;3.40;;;11.50;98.10;;;;;;5010499;28;20580;-74
2020/12/24 06:14:49;;;;;;;5.43;3.57;;;11.40;98.00;;;;;;4994297;28;20853;-76
2020/12/24 06:17:17;;;;;;;9.93;2.93;;;11.40;98.00;;;;;;4996073;28;20894;-74
2020/12/24 06:19:43;;;;;;;6.13;3.30;;;11.50;98.20;;;;;;5010507;28;20419;-75
2020/12/24 06:22:09;;;;;;;3.97;3.10;;;11.50;98.40;;;;;;5010081;28;20419;-74
2020/12/24 06:24:40;;;;;;;4.17;3.20;;;11.50;98.60;;;;;;5005826;28;20445;-74
2020/12/24 06:27:29;;;;;;;4.13;3.67;;;11.50;98.50;;;;;;5026253;28;20417;-74
2020/12/24 06:30:22;;;;;;;3.47;3.13;;;11.50;99.00;;;;;;4992440;28;20931;-74
2020/12/24 06:32:55;;;;;;;5.90;3.90;;;11.50;98.90;;;;;;4986162;28;20440;-75
2020/12/24 06:35:40;;;;;;;8.07;3.57;;;11.50;99.00;;;;;;5005354;28;20454;-74
2020/12/24 06:38:07;;;;;;;3.50;3.20;;;11.50;99.00;;;;;;5024191;28;20461;-74
2020/12/24 06:40:38;;;;;;;6.07;3.27;;;11.50;99.10;;;;;;5004118;28;20434;-74
2020/12/24 06:43:06;;;;;;;3.30;3.10;;;11.50;99.30;;;;;;5021285;28;20420;-74
2020/12/24 06:45:37;;;;;;;4.40;3.40;;;11.50;99.20;;;;;;5016725;28;20432;-74
2020/12/24 06:48:24;;;;;;;7.73;3.87;;;11.40;99.30;;;;;;5030418;28;20512;-74
2020/12/24 06:51:03;;;;;;;5.10;3.70;;;11.50;99.40;;;;;;5013052;28;20465;-75
2020/12/24 06:53:29;;;;;;;7.17;3.63;;;11.40;99.30;;;;;;5009754;28;20437;-74
2020/12/24 06:56:16;;;;;;;5.40;3.97;;;11.50;99.60;;;;;;5007161;28;20491;-74
2020/12/24 06:58:53;;;;;;;4.90;3.60;;;11.50;99.50;;;;;;4997823;28;20208;-75
2020/12/24 07:01:25;;;;;;;5.73;3.87;;;11.50;99.60;;;;;;5010409;28;20458;-74
2020/12/24 07:03:52;;;;;;;8.93;3.67;;;11.50;99.50;;;;;;4993270;28;20474;-74
2020/12/24 07:06:40;;;;;;;4.63;4.00;;;11.50;99.70;;;;;;5004478;28;20433;-73
2020/12/24 07:09:07;;;;;;;5.57;3.20;;;11.50;99.80;;;;;;4996006;28;20439;-73
2020/12/24 07:11:49;;;;;;;3.90;3.43;;;11.50;99.90;;;;;;5012349;28;20412;-73
2020/12/24 07:14:28;;;;;;;4.43;3.90;;;11.60;99.80;;;;;;5013259;28;20411;-73
2020/12/24 07:16:55;;;;;;;4.57;3.57;;;11.50;99.90;;;;;;5012858;28;20491;-74
2020/12/24 07:19:22;;;;;;;5.63;3.57;;;11.50;99.90;;;;;;5013325;28;20772;-73
2020/12/24 07:21:50;;;;;;;4.10;3.70;;;11.50;99.80;;;;;;5013275;28;20791;-75
2020/12/24 07:24:24;;;;;;;4.83;3.40;;;11.50;99.80;;;;;;5010684;28;20983;-73
2020/12/24 07:26:54;;;;;;;4.10;3.70;;;11.50;99.90;;;;;;5013998;28;20889;-79
2020/12/24 07:29:22;;;;;;;3.87;3.57;;;11.50;99.90;;;;;;5005264;28;20424;-76
2020/12/24 07:31:53;;;;;;;5.23;4.20;;;11.50;99.90;;;;;;5005695;28;20826;-77
2020/12/24 07:34:26;;;;;;;3.73;3.37;;;11.50;99.70;;;;;;5013519;28;20416;-73
2020/12/24 07:36:52;;;;;;;6.00;3.63;;;11.50;99.70;;;;;;5011524;28;20740;-77
2020/12/24 07:39:18;;;;;;;4.20;3.60;;;11.60;99.90;;;;;;5012172;28;20472;-76
2020/12/24 07:41:44;;;;;;;3.50;3.30;;;11.50;99.80;;;;;;5007347;28;20432;-76
2020/12/24 07:44:11;;;;;;;9.83;3.90;;;11.60;99.90;;;;;;5015785;28;20458;-76
2020/12/24 07:46:37;;;;;;;6.07;3.73;;;11.60;99.70;;;;;;5006156;28;20428;-73
2020/12/24 07:49:04;;;;;;;4.70;4.20;;;11.50;99.60;;;;;;5012180;28;20894;-72
2020/12/24 07:51:30;;;;;;;7.53;4.43;;;11.50;99.70;;;;;;5001072;28;20943;-72
2020/12/24 07:54:17;;;;;;;4.00;3.70;;;11.50;99.50;;;;;;4990092;28;20860;-72
2020/12/24 07:56:47;;;;;;;5.07;4.07;;;11.60;99.30;;;;;;5011227;28;20482;-72
2020/12/24 07:59:17;;;;;;;3.90;3.47;;;11.50;99.50;;;;;;5010707;28;20922;-72
2020/12/24 08:01:43;;;;;;;6.47;4.20;;;11.50;99.40;;;;;;5001757;28;20414;-72
2020/12/24 08:04:09;;;;;;;4.27;3.87;;;11.50;99.30;;;;;;4992451;28;20466;-73
2020/12/24 08:06:35;;;;;;;4.67;3.57;;;11.60;99.50;;;;;;5002434;28;20610;-72
2020/12/24 08:09:07;;;;;;;4.47;4.17;;;11.50;99.90;;;;;;5009168;28;20422;-73
2020/12/24 08:11:33;;;;;;;4.57;4.33;;;11.40;99.90;;;;;;5008704;28;20436;-75
2020/12/24 08:13:59;;;;;;;3.93;3.73;;;11.10;99.20;;;;;;5007953;28;20420;-72
2020/12/24 08:16:26;;;;;;;5.67;5.17;;;10.70;99.60;;;;;;5011464;28;20810;-73
2020/12/24 08:18:59;;;;;;;5.50;5.00;;;10.60;99.90;;;;;;5011656;28;20261;-75
2020/12/24 08:21:42;;;;;;;4.97;4.67;;;10.50;99.30;;;;;;5011614;28;20435;-73
2020/12/24 08:24:09;;;;;;;5.57;5.17;;;10.50;99.70;;;;;;5011826;28;20792;-71
2020/12/24 08:26:36;;;;;;;6.20;5.73;;;10.30;99.00;;;;;;4995390;28;20435;-71
2020/12/24 08:29:06;;;;;;;5.87;5.47;;;10.10;99.90;;;;;;5008717;28;20461;-70
2020/12/24 08:31:36;;;;;;;5.40;4.90;;;10.00;99.30;;;;;;5012713;28;20397;-70
2020/12/24 08:34:06;;;;;;;6.17;5.63;;;9.90;99.90;;;;;;5006283;28;20441;-71
2020/12/24 08:36:47;;;;;;;5.50;5.10;;;9.70;99.90;;;;;;5009095;28;20450;-72
2020/12/24 08:39:14;;;;;;;5.80;5.40;;;9.60;99.90;;;;;;5006662;28;20511;-71
2020/12/24 08:41:44;;;;;;;4.30;4.10;;;9.40;99.90;;;;;;5010966;28;20775;-72
2020/12/24 08:44:15;;;;;;;4.60;4.20;;;9.00;99.90;;;;;;5004165;28;20458;-72
2020/12/24 08:46:40;;;;;;;45.30;29.30;;;8.70;99.90;;;;;;5007126;28;20501;-72
2020/12/24 08:49:22;;;;;;;151.63;97.63;;;8.50;99.90;;;;;;5010559;28;20906;-72
2020/12/24 08:51:49;;;;;;;560.97;350.33;;;8.40;99.90;;;;;;5011792;28;20256;-72
2020/12/24 08:54:15;;;;;;;8.70;7.10;;;8.50;99.90;;;;;;5011128;28;20444;-71
2020/12/24 08:56:45;;;;;;;5.00;4.50;;;8.50;99.90;;;;;;4991236;28;20509;-73
2020/12/24 08:59:15;;;;;;;4.77;4.10;;;8.60;99.90;;;;;;4999066;28;20920;-72
2020/12/24 09:01:43;;;;;;;3.97;3.67;;;8.40;99.90;;;;;;5001824;28;20417;-71
2020/12/24 09:04:16;;;;;;;2.97;2.77;;;8.60;99.90;;;;;;5017082;28;20902;-72
2020/12/24 09:06:44;;;;;;;2.93;2.73;;;8.60;99.90;;;;;;5011460;28;20418;-71
2020/12/24 09:09:39;;;;;;;2.70;2.60;;;8.70;99.90;;;;;;5023514;28;20507;-72
2020/12/24 09:12:11;;;;;;;3.43;3.23;;;8.80;99.90;;;;;;4985782;28;20426;-73
2020/12/24 09:14:37;;;;;;;2.77;2.67;;;8.90;99.90;;;;;;5014177;28;20759;-71
2020/12/24 09:17:03;;;;;;;2.77;2.60;;;8.90;99.90;;;;;;5011121;28;20414;-71
2020/12/24 09:19:29;;;;;;;2.77;2.67;;;8.90;99.90;;;;;;4999997;28;20181;-71
2020/12/24 09:21:57;;;;;;;3.27;3.10;;;8.90;99.90;;;;;;5010816;28;20791;-72
2020/12/24 09:24:25;;;;;;;3.30;3.10;;;9.00;99.90;;;;;;5005855;28;20187;-71
2020/12/24 09:26:55;;;;;;;2.63;2.53;;;9.00;99.90;;;;;;5011509;28;20437;-77
2020/12/24 09:29:27;;;;;;;3.40;3.20;;;9.00;99.90;;;;;;5014380;28;20477;-76
2020/12/24 09:32:00;;;;;;;2.60;2.50;;;8.90;99.90;;;;;;5031097;28;20504;-76
2020/12/24 09:34:30;;;;;;;2.40;2.30;;;9.00;99.90;;;;;;5026809;28;20426;-75
2020/12/24 09:36:56;;;;;;;3.80;2.50;;;8.90;99.90;;;;;;5014945;28;20504;-74
2020/12/24 09:39:23;;;;;;;2.27;2.27;;;9.00;99.90;;;;;;5014579;28;20471;-75
2020/12/24 09:41:49;;;;;;;2.63;2.53;;;9.00;99.60;;;;;;5014556;28;20412;-75
2020/12/24 09:44:16;;;;;;;3.00;2.80;;;9.00;99.20;;;;;;5014337;28;20414;-74
2020/12/24 09:46:42;;;;;;;2.67;2.57;;;9.00;99.50;;;;;;5009891;28;20423;-74
2020/12/24 09:49:08;;;;;;;3.47;3.37;;;9.00;99.50;;;;;;5005611;28;20426;-74
2020/12/24 09:51:37;;;;;;;2.50;2.40;;;8.90;99.40;;;;;;5010606;28;20187;-74
2020/12/24 09:54:05;;;;;;;2.60;2.50;;;9.00;99.40;;;;;;5001511;28;20222;-74
2020/12/24 09:56:31;;;;;;;3.30;3.10;;;9.10;99.40;;;;;;5014022;28;20548;-74
2020/12/24 09:58:57;;;;;;;3.27;3.07;;;9.20;99.90;;;;;;5016271;28;20429;-74
2020/12/24 10:01:23;;;;;;;3.97;3.77;;;9.20;99.80;;;;;;5014589;28;20431;-75
2020/12/24 10:03:49;;;;;;;12.93;11.47;;;9.30;99.90;;;;;;5014798;28;20457;-76
2020/12/24 10:06:15;;;;;;;154.03;86.37;;;9.30;99.80;;;;;;5014021;28;20214;-76
2020/12/24 10:08:41;;;;;;;6.47;5.93;;;9.30;99.40;;;;;;5014301;28;20179;-76
2020/12/24 10:11:16;;;;;;;3.50;3.40;;;9.40;99.30;;;;;;5014036;28;20489;-76
2020/12/24 10:13:42;;;;;;;3.57;3.47;;;9.40;98.80;;;;;;5013438;28;20444;-76
2020/12/24 10:16:08;;;;;;;3.57;3.47;;;9.30;98.40;;;;;;5026182;28;20599;-76
2020/12/24 10:18:34;;;;;;;3.67;3.47;;;9.20;98.60;;;;;;5032795;28;20452;-76
2020/12/24 10:21:00;;;;;;;3.50;3.30;;;9.30;98.80;;;;;;5017838;28;20191;-73
2020/12/24 10:23:26;;;;;;;3.50;3.40;;;9.30;98.70;;;;;;5012450;28;20437;-76
2020/12/24 10:25:52;;;;;;;3.40;3.20;;;9.40;99.00;;;;;;5001112;28;20514;-75
2020/12/24 10:28:18;;;;;;;5.90;5.40;;;9.40;98.60;;;;;;5011095;28;20240;-86
2020/12/24 10:30:44;;;;;;;4.50;4.20;;;9.40;99.40;;;;;;5015405;28;20406;-76
2020/12/24 10:33:10;;;;;;;4.37;4.17;;;9.40;99.30;;;;;;5019648;28;20425;-74
2020/12/24 10:35:36;;;;;;;4.47;4.27;;;9.40;99.50;;;;;;5010928;28;20465;-74
2020/12/24 10:38:05;;;;;;;430.13;297.70;;;9.30;99.80;;;;;;5009083;28;20675;-74
2020/12/24 10:40:31;;;;;;;582.87;327.80;;;9.30;99.90;;;;;;5022046;28;20533;-74
2020/12/24 10:42:57;;;;;;;36.93;25.60;;;9.30;99.90;;;;;;5018269;28;20430;-73
2020/12/24 10:45:25;;;;;;;5.47;5.00;;;9.30;99.90;;;;;;5013217;28;20195;-77
2020/12/24 10:47:54;;;;;;;4.83;4.40;;;9.30;99.90;;;;;;5013877;28;20422;-80
2020/12/24 10:50:20;;;;;;;4.30;4.00;;;9.30;99.90;;;;;;5011713;28;20413;-76
2020/12/24 10:52:46;;;;;;;4.00;3.80;;;9.30;99.90;;;;;;5011908;28;20433;-76
2020/12/24 10:55:12;;;;;;;4.57;4.20;;;9.20;99.80;;;;;;5011914;28;20469;-76
2020/12/24 10:57:38;;;;;;;4.07;3.87;;;9.20;99.90;;;;;;5013908;28;20886;-74
2020/12/24 11:00:10;;;;;;;4.27;4.07;;;9.10;99.90;;;;;;5012842;28;20820;-75
2020/12/24 11:02:36;;;;;;;4.20;4.00;;;9.00;99.90;;;;;;5013481;28;20453;-75
2020/12/24 11:05:03;;;;;;;4.93;4.63;;;9.30;99.90;;;;;;5003489;28;20418;-76
2020/12/24 11:07:28;;;;;;;4.57;4.30;;;9.30;99.90;;;;;;5015933;28;20432;-80
2020/12/24 11:09:54;;;;;;;6.93;6.30;;;9.40;99.90;;;;;;5019019;28;20406;-77
2020/12/24 11:12:20;;;;;;;7.43;6.90;;;11.20;99.90;;;;;;5025689;28;20424;-75
2020/12/24 11:14:46;;;;;;;5.73;5.23;;;12.50;99.90;;;;;;5033143;28;20209;-78
2020/12/24 11:17:11;;;;;;;6.03;5.63;;;13.40;99.90;;;;;;5028221;28;20592;-76
2020/12/24 11:19:37;;;;;;;5.13;4.83;;;14.20;99.90;;;;;;5007064;28;20186;-78
2020/12/24 11:22:03;;;;;;;8.63;7.93;;;15.40;99.90;;;;;;4996125;28;20197;-79
2020/12/24 11:24:29;;;;;;;13.38;12.02;;;16.00;99.90;;;;;;5014493;28;20429;-81
2020/12/24 11:26:54;;;;;;;14.17;12.87;;;16.40;98.20;;;;;;5030058;28;20934;-80
2020/12/24 11:29:20;;;;;;;12.37;11.27;;;16.20;86.50;;;;;;5004700;28;20249;-77
2020/12/24 11:31:46;;;;;;;11.93;10.83;;;15.70;82.30;;;;;;5010546;28;20223;-78
2020/12/24 11:34:12;;;;;;;11.97;10.93;;;14.90;82.20;;;;;;5008589;28;20207;-78
2020/12/24 11:36:38;;;;;;;12.27;10.87;;;14.20;85.40;;;;;;5009701;28;20206;-83
2020/12/24 11:39:05;;;;;;;10.57;9.67;;;13.70;86.50;;;;;;5010780;28;20845;-82
2020/12/24 11:41:33;;;;;;;8.40;7.80;;;13.20;88.70;;;;;;5010187;28;20195;-78
2020/12/24 11:43:59;;;;;;;7.97;7.37;;;12.70;90.20;;;;;;5010953;28;20487;-79
2020/12/24 11:46:26;;;;;;;6.97;6.40;;;12.30;90.90;;;;;;5010030;28;21289;-78
2020/12/24 11:48:54;;;;;;;7.20;6.70;;;11.90;91.60;;;;;;5010160;28;20417;-77
2020/12/24 11:51:21;;;;;;;7.20;6.50;;;11.60;92.30;;;;;;5010216;28;20432;-78
2020/12/24 11:53:50;;;;;;;6.00;5.70;;;11.30;93.50;;;;;;5009353;28;20427;-78
2020/12/24 11:56:18;;;;;;;5.57;5.20;;;11.10;94.40;;;;;;5010182;28;20847;-78
2020/12/24 11:58:46;;;;;;;5.90;5.60;;;10.80;94.90;;;;;;5010588;28;20432;-79
2020/12/24 12:01:15;;;;;;;6.03;5.63;;;10.60;95.40;;;;;;5009874;28;20450;-78
2020/12/24 12:03:41;;;;;;;5.40;5.10;;;10.50;96.10;;;;;;4992165;28;20518;-73
2020/12/24 12:06:07;;;;;;;6.00;5.60;;;10.30;96.50;;;;;;5004842;28;20538;-72
2020/12/24 12:08:33;;;;;;;5.73;5.23;;;10.20;96.50;;;;;;5005859;28;20293;-73
2020/12/24 12:11:01;;;;;;;6.03;5.60;;;10.10;96.90;;;;;;5011448;28;20168;-73
2020/12/24 12:13:27;;;;;;;6.93;6.43;;;10.10;96.80;;;;;;5009613;28;20504;-72
2020/12/24 12:15:52;;;;;;;6.83;6.43;;;10.00;97.40;;;;;;5010371;28;20561;-72
2020/12/24 12:18:18;;;;;;;6.00;5.60;;;9.80;99.00;;;;;;5008943;28;20922;-72
2020/12/24 12:20:44;;;;;;;6.77;6.17;;;9.70;99.10;;;;;;5007525;28;20175;-72
2020/12/24 12:23:09;;;;;;;7.03;6.53;;;9.70;99.00;;;;;;5008038;28;20204;-74
2020/12/24 12:25:35;;;;;;;5.97;5.57;;;9.70;99.40;;;;;;5009549;28;20664;-72
2020/12/24 12:28:01;;;;;;;6.30;5.90;;;9.60;99.70;;;;;;5009325;28;20198;-72
2020/12/24 12:30:27;;;;;;;6.00;5.60;;;9.60;99.00;;;;;;5009428;28;20548;-72
2020/12/24 12:32:52;;;;;;;6.23;5.83;;;9.60;99.20;;;;;;5008960;28;20241;-74
2020/12/24 12:35:19;;;;;;;6.50;6.10;;;9.60;99.00;;;;;;5008879;28;20264;-72
2020/12/24 12:37:46;;;;;;;6.47;6.00;;;9.60;99.30;;;;;;5009209;28;20183;-72
2020/12/24 12:40:12;;;;;;;7.53;6.93;;;9.60;99.50;;;;;;5008038;28;20771;-72
2020/12/24 12:42:38;;;;;;;6.57;6.17;;;9.60;99.40;;;;;;4991988;28;20441;-72
2020/12/24 12:45:05;;;;;;;6.40;6.00;;;9.50;99.90;;;;;;5006368;28;20425;-74
2020/12/24 12:47:40;;;;;;;6.73;6.23;;;9.50;99.90;;;;;;5010115;28;20275;-72
2020/12/24 12:50:08;;;;;;;7.00;6.53;;;9.50;99.90;;;;;;4991295;28;20759;-74
2020/12/24 12:52:34;;;;;;;6.20;5.80;;;9.50;99.90;;;;;;5004913;28;20499;-73